createdAt,value
2019-02-12T12:41:55.845Z,99366.00
2019-02-12T12:43:40.272Z,99353.00
2019-02-12T12:45:24.771Z,99363.00
2019-02-12T12:47:09.176Z,99357.00
2019-02-12T12:48:53.602Z,99359.00
2019-02-12T12:50:38.051Z,99362.00
2019-02-12T12:52:22.482Z,99360.00
2019-02-12T12:54:06.874Z,99363.00
2019-02-12T12:55:51.326Z,99365.00
2019-02-12T12:57:41.628Z,99364.00
2019-02-12T12:59:21.870Z,99361.00
2019-02-12T13:01:06.306Z,99371.00
2019-02-12T13:02:50.891Z,99364.00
2019-02-12T13:04:35.511Z,99376.00
2019-02-12T13:06:19.953Z,99365.00
2019-02-12T13:08:04.406Z,99365.00
2019-02-12T13:09:48.815Z,99371.00
2019-02-12T13:11:33.229Z,99362.00
2019-02-12T13:13:17.749Z,99367.00
2019-02-12T13:15:02.333Z,99364.00
2019-02-12T13:16:46.832Z,99369.00
2019-02-12T13:18:31.229Z,99366.00
2019-02-12T13:20:17.961Z,99364.00
2019-02-12T13:22:02.362Z,99370.00
2019-02-12T13:23:46.881Z,99377.00
2019-02-12T13:25:31.332Z,99372.00
2019-02-12T13:27:15.807Z,99376.00
2019-02-12T13:29:00.249Z,99383.00
2019-02-12T13:30:44.667Z,99385.00
2019-02-12T13:32:29.092Z,99379.00
2019-02-12T13:34:13.534Z,99377.00
2019-02-12T13:35:57.940Z,99382.00
2019-02-12T13:37:42.381Z,99381.00
2019-02-12T13:39:26.778Z,99384.00
2019-02-12T13:41:11.235Z,99380.00
2019-02-12T13:42:55.660Z,99384.00
2019-02-12T13:44:40.152Z,99378.00
2019-02-12T13:46:24.585Z,99387.00
2019-02-12T13:48:09.011Z,99384.00
2019-02-12T13:49:53.434Z,99374.00
2019-02-12T13:51:37.864Z,99371.00
2019-02-12T13:53:22.262Z,99370.00
2019-02-12T13:55:16.905Z,99364.00
2019-02-12T13:56:55.515Z,99365.00
2019-02-12T13:58:39.915Z,99373.00
2019-02-12T14:00:24.409Z,99375.00
2019-02-12T14:02:08.802Z,99367.00
2019-02-12T14:03:53.335Z,99364.00
2019-02-12T14:05:37.713Z,99368.00
2019-02-12T14:07:22.139Z,99376.00
2019-02-12T14:09:07.090Z,99366.00
2019-02-12T14:10:51.510Z,99369.00
2019-02-12T14:12:35.982Z,99371.00
2019-02-12T14:14:20.542Z,99364.00
2019-02-12T14:16:05.115Z,99374.00
2019-02-12T14:17:49.722Z,99365.00
